sensor_id;sensor_type;location;lat;lon;timestamp;temperature;humidity
46336;DHT22;31365;48.858;8.530;2022-07-12T00:00:21;16.20;99.90
46336;DHT22;31365;48.858;8.530;2022-07-12T00:02:50;16.20;99.90
46336;DHT22;31365;48.858;8.530;2022-07-12T00:05:19;16.20;99.90
46336;DHT22;31365;48.858;8.530;2022-07-12T00:07:48;16.20;99.90
46336;DHT22;31365;48.858;8.530;2022-07-12T00:10:17;16.20;99.90
46336;DHT22;31365;48.858;8.530;2022-07-12T00:12:45;16.20;99.90
46336;DHT22;31365;48.858;8.530;2022-07-12T00:15:16;16.00;99.90
46336;DHT22;31365;48.858;8.530;2022-07-12T00:17:44;16.00;99.90
46336;DHT22;31365;48.858;8.530;2022-07-12T00:20:12;16.00;99.90
46336;DHT22;31365;48.858;8.530;2022-07-12T00:22:41;16.10;99.90
46336;DHT22;31365;48.858;8.530;2022-07-12T00:25:09;16.00;99.90
46336;DHT22;31365;48.858;8.530;2022-07-12T00:27:38;15.90;99.90
46336;DHT22;31365;48.858;8.530;2022-07-12T00:30:08;15.90;99.90
46336;DHT22;31365;48.858;8.530;2022-07-12T00:32:38;15.80;99.90
46336;DHT22;31365;48.858;8.530;2022-07-12T00:35:07;15.80;99.90
46336;DHT22;31365;48.858;8.530;2022-07-12T00:37:36;15.80;99.90
46336;DHT22;31365;48.858;8.530;2022-07-12T00:40:06;15.80;99.90
46336;DHT22;31365;48.858;8.530;2022-07-12T00:42:38;15.70;99.90
46336;DHT22;31365;48.858;8.530;2022-07-12T00:45:08;15.70;99.90
46336;DHT22;31365;48.858;8.530;2022-07-12T00:47:40;15.70;99.90
46336;DHT22;31365;48.858;8.530;2022-07-12T00:50:14;15.70;99.90
46336;DHT22;31365;48.858;8.530;2022-07-12T00:52:44;15.60;99.90
46336;DHT22;31365;48.858;8.530;2022-07-12T00:55:17;15.60;99.90
46336;DHT22;31365;48.858;8.530;2022-07-12T00:57:47;15.60;99.90
46336;DHT22;31365;48.858;8.530;2022-07-12T01:00:19;15.60;99.90
46336;DHT22;31365;48.858;8.530;2022-07-12T01:02:51;15.50;99.90
46336;DHT22;31365;48.858;8.530;2022-07-12T01:05:21;15.50;99.90
46336;DHT22;31365;48.858;8.530;2022-07-12T01:07:51;15.50;99.90
46336;DHT22;31365;48.858;8.530;2022-07-12T01:10:22;15.50;99.90
46336;DHT22;31365;48.858;8.530;2022-07-12T01:12:50;15.50;99.90
46336;DHT22;31365;48.858;8.530;2022-07-12T01:15:21;15.50;99.90
46336;DHT22;31365;48.858;8.530;2022-07-12T01:17:51;15.50;99.90
46336;DHT22;31365;48.858;8.530;2022-07-12T01:20:20;15.50;99.90
46336;DHT22;31365;48.858;8.530;2022-07-12T01:22:52;15.50;99.90
46336;DHT22;31365;48.858;8.530;2022-07-12T01:25:22;15.50;99.90
46336;DHT22;31365;48.858;8.530;2022-07-12T01:27:52;15.50;99.90
46336;DHT22;31365;48.858;8.530;2022-07-12T01:30:21;15.40;99.90
46336;DHT22;31365;48.858;8.530;2022-07-12T01:32:50;15.50;99.90
46336;DHT22;31365;48.858;8.530;2022-07-12T01:35:21;15.50;99.90
46336;DHT22;31365;48.858;8.530;2022-07-12T01:37:49;15.40;99.90
46336;DHT22;31365;48.858;8.530;2022-07-12T01:40:19;15.40;99.90
46336;DHT22;31365;48.858;8.530;2022-07-12T01:42:48;15.40;99.90
46336;DHT22;31365;48.858;8.530;2022-07-12T01:45:18;15.40;99.90
46336;DHT22;31365;48.858;8.530;2022-07-12T01:47:47;15.40;99.90
46336;DHT22;31365;48.858;8.530;2022-07-12T01:50:16;15.40;99.90
46336;DHT22;31365;48.858;8.530;2022-07-12T01:52:45;15.40;99.90
46336;DHT22;31365;48.858;8.530;2022-07-12T01:55:13;15.40;99.90
46336;DHT22;31365;48.858;8.530;2022-07-12T01:57:43;15.40;99.90
46336;DHT22;31365;48.858;8.530;2022-07-12T02:00:12;15.40;99.90
46336;DHT22;31365;48.858;8.530;2022-07-12T02:02:41;15.30;99.90
46336;DHT22;31365;48.858;8.530;2022-07-12T02:05:13;15.20;99.90
46336;DHT22;31365;48.858;8.530;2022-07-12T02:07:42;15.20;99.90
46336;DHT22;31365;48.858;8.530;2022-07-12T02:10:11;15.20;99.90
46336;DHT22;31365;48.858;8.530;2022-07-12T02:12:39;15.10;99.90
46336;DHT22;31365;48.858;8.530;2022-07-12T02:15:10;15.10;99.90
46336;DHT22;31365;48.858;8.530;2022-07-12T02:17:38;15.10;99.90
46336;DHT22;31365;48.858;8.530;2022-07-12T02:20:09;15.10;99.90
46336;DHT22;31365;48.858;8.530;2022-07-12T02:22:39;15.10;99.90
46336;DHT22;31365;48.858;8.530;2022-07-12T02:25:08;15.00;99.90
46336;DHT22;31365;48.858;8.530;2022-07-12T02:27:38;15.00;99.90
46336;DHT22;31365;48.858;8.530;2022-07-12T02:30:10;15.00;99.90
46336;DHT22;31365;48.858;8.530;2022-07-12T02:32:38;15.00;99.90
46336;DHT22;31365;48.858;8.530;2022-07-12T02:35:07;15.00;99.90
46336;DHT22;31365;48.858;8.530;2022-07-12T02:37:36;14.90;99.90
46336;DHT22;31365;48.858;8.530;2022-07-12T02:40:05;14.90;99.90
46336;DHT22;31365;48.858;8.530;2022-07-12T02:42:53;14.90;99.90
46336;DHT22;31365;48.858;8.530;2022-07-12T02:45:23;14.80;99.90
46336;DHT22;31365;48.858;8.530;2022-07-12T02:47:51;14.90;99.90
46336;DHT22;31365;48.858;8.530;2022-07-12T02:50:20;14.80;99.90
46336;DHT22;31365;48.858;8.530;2022-07-12T02:52:49;14.90;99.90
46336;DHT22;31365;48.858;8.530;2022-07-12T02:55:18;14.80;99.90
46336;DHT22;31365;48.858;8.530;2022-07-12T02:57:46;14.80;99.90
46336;DHT22;31365;48.858;8.530;2022-07-12T03:00:15;14.80;99.90
46336;DHT22;31365;48.858;8.530;2022-07-12T03:02:45;14.80;99.90
46336;DHT22;31365;48.858;8.530;2022-07-12T03:05:14;14.70;99.90
46336;DHT22;31365;48.858;8.530;2022-07-12T03:07:43;14.70;99.90
46336;DHT22;31365;48.858;8.530;2022-07-12T03:10:11;14.70;99.90
46336;DHT22;31365;48.858;8.530;2022-07-12T03:12:40;14.70;99.90
46336;DHT22;31365;48.858;8.530;2022-07-12T03:15:09;14.60;99.90
46336;DHT22;31365;48.858;8.530;2022-07-12T03:17:38;14.60;99.90
46336;DHT22;31365;48.858;8.530;2022-07-12T03:20:09;14.60;99.90
46336;DHT22;31365;48.858;8.530;2022-07-12T03:22:38;14.60;99.90
46336;DHT22;31365;48.858;8.530;2022-07-12T03:25:07;14.60;99.90
46336;DHT22;31365;48.858;8.530;2022-07-12T03:27:36;14.60;99.90
46336;DHT22;31365;48.858;8.530;2022-07-12T03:30:10;14.50;99.90
46336;DHT22;31365;48.858;8.530;2022-07-12T03:32:40;14.50;99.90
46336;DHT22;31365;48.858;8.530;2022-07-12T03:35:11;14.60;99.90
46336;DHT22;31365;48.858;8.530;2022-07-12T03:37:44;14.50;99.90
46336;DHT22;31365;48.858;8.530;2022-07-12T03:40:15;14.50;99.90
46336;DHT22;31365;48.858;8.530;2022-07-12T03:42:45;14.50;99.90
46336;DHT22;31365;48.858;8.530;2022-07-12T03:45:16;14.50;99.90
46336;DHT22;31365;48.858;8.530;2022-07-12T03:47:45;14.70;99.90
46336;DHT22;31365;48.858;8.530;2022-07-12T03:50:16;14.70;99.90
46336;DHT22;31365;48.858;8.530;2022-07-12T03:52:45;14.80;99.90
46336;DHT22;31365;48.858;8.530;2022-07-12T03:55:13;14.90;99.90
46336;DHT22;31365;48.858;8.530;2022-07-12T03:57:42;14.90;99.90
46336;DHT22;31365;48.858;8.530;2022-07-12T04:00:11;14.90;99.90
46336;DHT22;31365;48.858;8.530;2022-07-12T04:02:41;15.00;99.90
46336;DHT22;31365;48.858;8.530;2022-07-12T04:05:11;15.00;99.90
46336;DHT22;31365;48.858;8.530;2022-07-12T04:07:41;15.00;99.90
46336;DHT22;31365;48.858;8.530;2022-07-12T04:10:09;14.90;99.90
46336;DHT22;31365;48.858;8.530;2022-07-12T04:12:37;15.00;99.90
46336;DHT22;31365;48.858;8.530;2022-07-12T04:15:07;14.90;99.90
46336;DHT22;31365;48.858;8.530;2022-07-12T04:17:36;14.80;99.90
46336;DHT22;31365;48.858;8.530;2022-07-12T04:20:06;14.70;99.90
46336;DHT22;31365;48.858;8.530;2022-07-12T04:22:38;14.70;99.90
46336;DHT22;31365;48.858;8.530;2022-07-12T04:25:08;14.60;99.90
46336;DHT22;31365;48.858;8.530;2022-07-12T04:27:37;14.60;99.90
46336;DHT22;31365;48.858;8.530;2022-07-12T04:30:06;14.60;99.90
46336;DHT22;31365;48.858;8.530;2022-07-12T04:32:36;14.50;99.90
46336;DHT22;31365;48.858;8.530;2022-07-12T04:35:05;14.60;99.90
46336;DHT22;31365;48.858;8.530;2022-07-12T04:37:34;14.60;99.90
46336;DHT22;31365;48.858;8.530;2022-07-12T04:40:03;14.60;99.90
46336;DHT22;31365;48.858;8.530;2022-07-12T04:42:33;14.70;99.90
46336;DHT22;31365;48.858;8.530;2022-07-12T04:45:01;14.70;99.90
46336;DHT22;31365;48.858;8.530;2022-07-12T04:47:30;14.80;99.90
46336;DHT22;31365;48.858;8.530;2022-07-12T04:49:58;15.10;99.90
46336;DHT22;31365;48.858;8.530;2022-07-12T04:52:27;15.00;99.90
46336;DHT22;31365;48.858;8.530;2022-07-12T04:54:55;15.00;99.90
46336;DHT22;31365;48.858;8.530;2022-07-12T04:57:24;15.00;99.90
46336;DHT22;31365;48.858;8.530;2022-07-12T04:59:54;15.10;99.90
46336;DHT22;31365;48.858;8.530;2022-07-12T05:02:22;15.10;99.90
46336;DHT22;31365;48.858;8.530;2022-07-12T05:04:51;15.10;99.90
46336;DHT22;31365;48.858;8.530;2022-07-12T05:07:19;15.20;99.90
46336;DHT22;31365;48.858;8.530;2022-07-12T05:09:48;15.30;99.90
46336;DHT22;31365;48.858;8.530;2022-07-12T05:12:16;15.30;99.90
46336;DHT22;31365;48.858;8.530;2022-07-12T05:14:44;15.40;99.90
46336;DHT22;31365;48.858;8.530;2022-07-12T05:17:15;15.40;99.90
46336;DHT22;31365;48.858;8.530;2022-07-12T05:19:43;15.60;99.90
46336;DHT22;31365;48.858;8.530;2022-07-12T05:22:11;15.70;99.90
46336;DHT22;31365;48.858;8.530;2022-07-12T05:24:43;15.80;99.90
46336;DHT22;31365;48.858;8.530;2022-07-12T05:27:11;16.00;99.90
46336;DHT22;31365;48.858;8.530;2022-07-12T05:29:39;16.00;99.90
46336;DHT22;31365;48.858;8.530;2022-07-12T05:32:08;16.10;99.90
46336;DHT22;31365;48.858;8.530;2022-07-12T05:34:38;16.20;99.90
46336;DHT22;31365;48.858;8.530;2022-07-12T05:37:07;16.30;99.90
46336;DHT22;31365;48.858;8.530;2022-07-12T05:39:36;16.40;99.90
46336;DHT22;31365;48.858;8.530;2022-07-12T05:42:10;16.50;99.90
46336;DHT22;31365;48.858;8.530;2022-07-12T05:44:39;16.70;99.90
46336;DHT22;31365;48.858;8.530;2022-07-12T05:47:07;16.90;99.90
46336;DHT22;31365;48.858;8.530;2022-07-12T05:49:37;17.00;99.90
46336;DHT22;31365;48.858;8.530;2022-07-12T05:52:06;17.10;99.90
46336;DHT22;31365;48.858;8.530;2022-07-12T05:54:52;17.20;99.90
46336;DHT22;31365;48.858;8.530;2022-07-12T05:57:21;17.40;99.90
46336;DHT22;31365;48.858;8.530;2022-07-12T05:59:49;17.60;99.90
46336;DHT22;31365;48.858;8.530;2022-07-12T06:02:18;17.70;99.90
46336;DHT22;31365;48.858;8.530;2022-07-12T06:04:47;17.90;99.90
46336;DHT22;31365;48.858;8.530;2022-07-12T06:07:17;18.10;99.90
46336;DHT22;31365;48.858;8.530;2022-07-12T06:09:45;18.10;99.90
46336;DHT22;31365;48.858;8.530;2022-07-12T06:12:14;18.30;99.90
46336;DHT22;31365;48.858;8.530;2022-07-12T06:14:42;18.40;99.90
46336;DHT22;31365;48.858;8.530;2022-07-12T06:17:11;18.60;99.90
46336;DHT22;31365;48.858;8.530;2022-07-12T06:19:39;18.60;99.90
46336;DHT22;31365;48.858;8.530;2022-07-12T06:22:09;18.70;99.90
46336;DHT22;31365;48.858;8.530;2022-07-12T06:24:37;18.80;99.90
46336;DHT22;31365;48.858;8.530;2022-07-12T06:27:05;18.90;99.90
46336;DHT22;31365;48.858;8.530;2022-07-12T06:29:34;19.00;99.90
46336;DHT22;31365;48.858;8.530;2022-07-12T06:32:02;19.20;99.90
46336;DHT22;31365;48.858;8.530;2022-07-12T06:34:31;19.20;99.90
46336;DHT22;31365;48.858;8.530;2022-07-12T06:36:59;19.30;99.90
46336;DHT22;31365;48.858;8.530;2022-07-12T06:39:29;19.30;99.90
46336;DHT22;31365;48.858;8.530;2022-07-12T06:41:58;19.40;99.90
46336;DHT22;31365;48.858;8.530;2022-07-12T06:44:26;19.50;99.90
46336;DHT22;31365;48.858;8.530;2022-07-12T06:46:55;19.50;99.90
46336;DHT22;31365;48.858;8.530;2022-07-12T06:49:23;19.60;99.90
46336;DHT22;31365;48.858;8.530;2022-07-12T06:51:52;19.80;99.90
46336;DHT22;31365;48.858;8.530;2022-07-12T06:54:21;19.80;99.90
46336;DHT22;31365;48.858;8.530;2022-07-12T06:56:51;19.90;99.90
46336;DHT22;31365;48.858;8.530;2022-07-12T06:59:19;20.00;99.90
46336;DHT22;31365;48.858;8.530;2022-07-12T07:01:48;20.10;99.90
46336;DHT22;31365;48.858;8.530;2022-07-12T07:04:17;20.10;99.90
46336;DHT22;31365;48.858;8.530;2022-07-12T07:06:45;20.20;99.90
46336;DHT22;31365;48.858;8.530;2022-07-12T07:09:13;20.30;99.90
46336;DHT22;31365;48.858;8.530;2022-07-12T07:11:42;20.50;99.90
46336;DHT22;31365;48.858;8.530;2022-07-12T07:14:12;20.40;99.90
46336;DHT22;31365;48.858;8.530;2022-07-12T07:16:41;20.60;99.90
46336;DHT22;31365;48.858;8.530;2022-07-12T07:19:09;20.80;99.90
46336;DHT22;31365;48.858;8.530;2022-07-12T07:21:38;20.80;99.90
46336;DHT22;31365;48.858;8.530;2022-07-12T07:24:06;20.90;99.90
46336;DHT22;31365;48.858;8.530;2022-07-12T07:26:36;21.00;99.90
46336;DHT22;31365;48.858;8.530;2022-07-12T07:29:05;21.10;99.90
46336;DHT22;31365;48.858;8.530;2022-07-12T07:31:53;21.20;99.90
46336;DHT22;31365;48.858;8.530;2022-07-12T07:34:22;21.20;99.90
46336;DHT22;31365;48.858;8.530;2022-07-12T07:36:51;21.10;99.90
46336;DHT22;31365;48.858;8.530;2022-07-12T07:39:19;21.10;99.90
46336;DHT22;31365;48.858;8.530;2022-07-12T07:41:48;21.20;99.90
46336;DHT22;31365;48.858;8.530;2022-07-12T07:44:16;21.20;99.90
46336;DHT22;31365;48.858;8.530;2022-07-12T07:46:45;21.30;99.90
46336;DHT22;31365;48.858;8.530;2022-07-12T07:49:15;21.30;99.90
46336;DHT22;31365;48.858;8.530;2022-07-12T07:51:44;21.30;99.90
46336;DHT22;31365;48.858;8.530;2022-07-12T07:54:12;21.40;99.90
46336;DHT22;31365;48.858;8.530;2022-07-12T07:56:41;21.50;99.90
46336;DHT22;31365;48.858;8.530;2022-07-12T07:59:09;21.50;99.90
46336;DHT22;31365;48.858;8.530;2022-07-12T08:01:37;21.60;99.90
46336;DHT22;31365;48.858;8.530;2022-07-12T08:04:15;21.60;99.90
46336;DHT22;31365;48.858;8.530;2022-07-12T08:06:43;21.60;99.90
46336;DHT22;31365;48.858;8.530;2022-07-12T08:09:12;21.70;99.90
46336;DHT22;31365;48.858;8.530;2022-07-12T08:11:42;21.70;99.90
46336;DHT22;31365;48.858;8.530;2022-07-12T08:14:10;21.80;99.90
46336;DHT22;31365;48.858;8.530;2022-07-12T08:16:41;21.80;99.90
46336;DHT22;31365;48.858;8.530;2022-07-12T08:19:10;21.90;99.90
46336;DHT22;31365;48.858;8.530;2022-07-12T08:21:39;22.00;99.90
46336;DHT22;31365;48.858;8.530;2022-07-12T08:24:07;22.00;99.90
46336;DHT22;31365;48.858;8.530;2022-07-12T08:26:36;22.10;99.90
46336;DHT22;31365;48.858;8.530;2022-07-12T08:29:04;22.00;99.90
46336;DHT22;31365;48.858;8.530;2022-07-12T08:31:32;22.00;99.90
46336;DHT22;31365;48.858;8.530;2022-07-12T08:34:01;22.00;99.90
46336;DHT22;31365;48.858;8.530;2022-07-12T08:36:30;22.00;99.90
46336;DHT22;31365;48.858;8.530;2022-07-12T08:39:01;22.10;99.90
46336;DHT22;31365;48.858;8.530;2022-07-12T08:41:30;22.10;99.90
46336;DHT22;31365;48.858;8.530;2022-07-12T08:43:58;22.20;99.90
46336;DHT22;31365;48.858;8.530;2022-07-12T08:46:27;22.20;99.90
46336;DHT22;31365;48.858;8.530;2022-07-12T08:48:55;22.20;99.90
46336;DHT22;31365;48.858;8.530;2022-07-12T08:51:23;22.30;99.90
46336;DHT22;31365;48.858;8.530;2022-07-12T08:54:09;22.50;99.90
46336;DHT22;31365;48.858;8.530;2022-07-12T08:56:40;22.60;99.90
46336;DHT22;31365;48.858;8.530;2022-07-12T08:59:11;22.50;99.90
46336;DHT22;31365;48.858;8.530;2022-07-12T09:01:43;22.50;99.90
46336;DHT22;31365;48.858;8.530;2022-07-12T09:04:15;22.60;99.90
46336;DHT22;31365;48.858;8.530;2022-07-12T09:06:46;22.50;99.90
46336;DHT22;31365;48.858;8.530;2022-07-12T09:09:27;22.70;99.90
46336;DHT22;31365;48.858;8.530;2022-07-12T09:11:56;22.60;99.90
46336;DHT22;31365;48.858;8.530;2022-07-12T09:14:25;22.60;99.90
46336;DHT22;31365;48.858;8.530;2022-07-12T09:17:02;22.70;99.90
46336;DHT22;31365;48.858;8.530;2022-07-12T09:19:37;22.70;99.90
46336;DHT22;31365;48.858;8.530;2022-07-12T09:22:13;22.70;99.90
46336;DHT22;31365;48.858;8.530;2022-07-12T09:24:45;22.60;99.90
46336;DHT22;31365;48.858;8.530;2022-07-12T09:27:13;22.70;99.90
46336;DHT22;31365;48.858;8.530;2022-07-12T09:29:49;22.80;99.90
46336;DHT22;31365;48.858;8.530;2022-07-12T09:32:25;23.00;99.90
46336;DHT22;31365;48.858;8.530;2022-07-12T09:35:11;23.10;99.90
46336;DHT22;31365;48.858;8.530;2022-07-12T09:38:07;23.20;99.90
46336;DHT22;31365;48.858;8.530;2022-07-12T09:40:38;23.20;99.90
46336;DHT22;31365;48.858;8.530;2022-07-12T09:43:06;23.30;99.90
46336;DHT22;31365;48.858;8.530;2022-07-12T09:45:36;23.30;99.90
46336;DHT22;31365;48.858;8.530;2022-07-12T09:48:07;23.20;99.90
46336;DHT22;31365;48.858;8.530;2022-07-12T09:50:38;23.10;99.80
46336;DHT22;31365;48.858;8.530;2022-07-12T09:53:08;23.00;99.90
46336;DHT22;31365;48.858;8.530;2022-07-12T09:55:39;23.00;99.90
46336;DHT22;31365;48.858;8.530;2022-07-12T09:58:10;23.10;99.90
46336;DHT22;31365;48.858;8.530;2022-07-12T10:00:41;23.20;99.80
46336;DHT22;31365;48.858;8.530;2022-07-12T10:03:12;23.20;99.70
46336;DHT22;31365;48.858;8.530;2022-07-12T10:05:41;23.30;99.90
46336;DHT22;31365;48.858;8.530;2022-07-12T10:08:10;23.30;99.00
46336;DHT22;31365;48.858;8.530;2022-07-12T10:10:41;23.20;99.00
46336;DHT22;31365;48.858;8.530;2022-07-12T10:13:10;23.30;99.70
46336;DHT22;31365;48.858;8.530;2022-07-12T10:15:40;23.40;99.70
46336;DHT22;31365;48.858;8.530;2022-07-12T10:18:15;23.40;98.80
46336;DHT22;31365;48.858;8.530;2022-07-12T10:20:46;23.40;98.70
46336;DHT22;31365;48.858;8.530;2022-07-12T10:23:32;23.40;98.70
46336;DHT22;31365;48.858;8.530;2022-07-12T10:26:24;23.40;98.80
46336;DHT22;31365;48.858;8.530;2022-07-12T10:29:07;23.50;98.50
46336;DHT22;31365;48.858;8.530;2022-07-12T10:31:37;23.40;98.30
46336;DHT22;31365;48.858;8.530;2022-07-12T10:34:12;23.50;98.50
46336;DHT22;31365;48.858;8.530;2022-07-12T10:37:09;23.40;98.20
46336;DHT22;31365;48.858;8.530;2022-07-12T10:40:11;23.40;98.70
46336;DHT22;31365;48.858;8.530;2022-07-12T10:43:16;23.50;98.40
46336;DHT22;31365;48.858;8.530;2022-07-12T10:45:49;23.50;97.90
46336;DHT22;31365;48.858;8.530;2022-07-12T10:48:22;23.60;98.10
46336;DHT22;31365;48.858;8.530;2022-07-12T10:50:53;23.60;98.30
46336;DHT22;31365;48.858;8.530;2022-07-12T10:53:27;23.50;98.20
46336;DHT22;31365;48.858;8.530;2022-07-12T10:56:10;23.50;98.20
46336;DHT22;31365;48.858;8.530;2022-07-12T10:58:44;23.70;97.90
46336;DHT22;31365;48.858;8.530;2022-07-12T11:01:16;23.90;98.00
46336;DHT22;31365;48.858;8.530;2022-07-12T11:03:47;24.10;97.30
46336;DHT22;31365;48.858;8.530;2022-07-12T11:06:17;24.20;97.00
46336;DHT22;31365;48.858;8.530;2022-07-12T11:08:49;24.40;97.40
46336;DHT22;31365;48.858;8.530;2022-07-12T11:11:25;24.40;97.10
46336;DHT22;31365;48.858;8.530;2022-07-12T11:13:57;24.60;97.10
46336;DHT22;31365;48.858;8.530;2022-07-12T11:16:27;25.00;96.30
46336;DHT22;31365;48.858;8.530;2022-07-12T11:18:58;25.20;96.10
46336;DHT22;31365;48.858;8.530;2022-07-12T11:21:27;25.30;95.60
46336;DHT22;31365;48.858;8.530;2022-07-12T11:23:55;25.50;95.40
46336;DHT22;31365;48.858;8.530;2022-07-12T11:26:25;25.60;95.10
46336;DHT22;31365;48.858;8.530;2022-07-12T11:28:58;26.00;94.90
46336;DHT22;31365;48.858;8.530;2022-07-12T11:31:26;26.50;94.20
46336;DHT22;31365;48.858;8.530;2022-07-12T11:33:54;27.20;93.70
46336;DHT22;31365;48.858;8.530;2022-07-12T11:36:25;27.90;92.00
46336;DHT22;31365;48.858;8.530;2022-07-12T11:38:54;28.60;90.80
46336;DHT22;31365;48.858;8.530;2022-07-12T11:41:22;29.30;90.10
46336;DHT22;31365;48.858;8.530;2022-07-12T11:43:51;29.90;87.90
46336;DHT22;31365;48.858;8.530;2022-07-12T11:46:20;30.30;85.80
46336;DHT22;31365;48.858;8.530;2022-07-12T11:48:49;31.00;83.70
46336;DHT22;31365;48.858;8.530;2022-07-12T11:51:18;31.40;80.90
46336;DHT22;31365;48.858;8.530;2022-07-12T11:53:51;31.70;80.20
46336;DHT22;31365;48.858;8.530;2022-07-12T11:56:29;31.90;78.70
46336;DHT22;31365;48.858;8.530;2022-07-12T11:58:58;31.80;78.40
46336;DHT22;31365;48.858;8.530;2022-07-12T12:01:28;32.30;76.50
46336;DHT22;31365;48.858;8.530;2022-07-12T12:03:56;32.60;74.40
46336;DHT22;31365;48.858;8.530;2022-07-12T12:06:24;32.90;73.80
46336;DHT22;31365;48.858;8.530;2022-07-12T12:08:53;33.30;72.90
46336;DHT22;31365;48.858;8.530;2022-07-12T12:11:26;33.70;72.10
46336;DHT22;31365;48.858;8.530;2022-07-12T12:13:56;34.00;71.40
46336;DHT22;31365;48.858;8.530;2022-07-12T12:16:25;34.30;69.90
46336;DHT22;31365;48.858;8.530;2022-07-12T12:19:00;34.30;68.60
46336;DHT22;31365;48.858;8.530;2022-07-12T12:21:29;34.40;67.30
46336;DHT22;31365;48.858;8.530;2022-07-12T12:24:08;34.70;67.50
46336;DHT22;31365;48.858;8.530;2022-07-12T12:26:37;34.90;66.60
46336;DHT22;31365;48.858;8.530;2022-07-12T12:29:06;35.40;64.80
46336;DHT22;31365;48.858;8.530;2022-07-12T12:31:34;35.80;63.70
46336;DHT22;31365;48.858;8.530;2022-07-12T12:34:10;36.20;63.90
46336;DHT22;31365;48.858;8.530;2022-07-12T12:36:41;36.30;61.10
46336;DHT22;31365;48.858;8.530;2022-07-12T12:39:09;36.60;61.10
46336;DHT22;31365;48.858;8.530;2022-07-12T12:41:39;37.10;60.30
46336;DHT22;31365;48.858;8.530;2022-07-12T12:44:11;36.90;59.60
46336;DHT22;31365;48.858;8.530;2022-07-12T12:46:43;37.30;59.50
46336;DHT22;31365;48.858;8.530;2022-07-12T12:49:45;37.30;58.10
46336;DHT22;31365;48.858;8.530;2022-07-12T12:52:23;37.20;58.60
46336;DHT22;31365;48.858;8.530;2022-07-12T12:54:52;37.00;58.60
46336;DHT22;31365;48.858;8.530;2022-07-12T12:57:22;37.30;58.20
46336;DHT22;31365;48.858;8.530;2022-07-12T12:59:52;37.60;57.30
46336;DHT22;31365;48.858;8.530;2022-07-12T13:02:21;37.80;56.80
46336;DHT22;31365;48.858;8.530;2022-07-12T13:04:53;37.80;57.10
46336;DHT22;31365;48.858;8.530;2022-07-12T13:07:21;37.50;57.70
46336;DHT22;31365;48.858;8.530;2022-07-12T13:09:50;37.90;56.80
46336;DHT22;31365;48.858;8.530;2022-07-12T13:12:18;38.10;55.80
46336;DHT22;31365;48.858;8.530;2022-07-12T13:14:46;38.00;56.00
46336;DHT22;31365;48.858;8.530;2022-07-12T13:17:15;38.20;55.30
46336;DHT22;31365;48.858;8.530;2022-07-12T13:19:43;38.30;55.50
46336;DHT22;31365;48.858;8.530;2022-07-12T13:22:12;38.20;55.50
46336;DHT22;31365;48.858;8.530;2022-07-12T13:24:40;38.40;55.10
46336;DHT22;31365;48.858;8.530;2022-07-12T13:27:09;38.90;54.70
46336;DHT22;31365;48.858;8.530;2022-07-12T13:29:37;39.40;54.20
46336;DHT22;31365;48.858;8.530;2022-07-12T13:32:06;39.80;53.00
46336;DHT22;31365;48.858;8.530;2022-07-12T13:34:35;39.80;53.30
46336;DHT22;31365;48.858;8.530;2022-07-12T13:37:04;39.60;52.30
46336;DHT22;31365;48.858;8.530;2022-07-12T13:39:34;39.30;52.10
46336;DHT22;31365;48.858;8.530;2022-07-12T13:42:20;39.10;52.50
46336;DHT22;31365;48.858;8.530;2022-07-12T13:44:49;39.10;53.20
46336;DHT22;31365;48.858;8.530;2022-07-12T13:47:19;39.40;52.50
46336;DHT22;31365;48.858;8.530;2022-07-12T13:49:48;39.30;52.00
46336;DHT22;31365;48.858;8.530;2022-07-12T13:52:24;39.20;52.50
46336;DHT22;31365;48.858;8.530;2022-07-12T13:54:53;39.40;52.50
46336;DHT22;31365;48.858;8.530;2022-07-12T13:57:30;39.30;52.00
46336;DHT22;31365;48.858;8.530;2022-07-12T13:59:59;39.20;51.90
46336;DHT22;31365;48.858;8.530;2022-07-12T14:02:37;39.30;52.00
46336;DHT22;31365;48.858;8.530;2022-07-12T14:05:09;39.70;51.20
46336;DHT22;31365;48.858;8.530;2022-07-12T14:07:39;39.90;51.20
46336;DHT22;31365;48.858;8.530;2022-07-12T14:10:10;39.90;50.80
46336;DHT22;31365;48.858;8.530;2022-07-12T14:12:40;40.00;51.10
46336;DHT22;31365;48.858;8.530;2022-07-12T14:15:09;40.10;50.20
46336;DHT22;31365;48.858;8.530;2022-07-12T14:18:04;40.30;50.10
46336;DHT22;31365;48.858;8.530;2022-07-12T14:20:36;40.30;49.80
46336;DHT22;31365;48.858;8.530;2022-07-12T14:23:05;40.20;49.70
46336;DHT22;31365;48.858;8.530;2022-07-12T14:25:35;40.20;50.20
46336;DHT22;31365;48.858;8.530;2022-07-12T14:28:04;40.60;49.70
46336;DHT22;31365;48.858;8.530;2022-07-12T14:30:32;40.50;49.40
46336;DHT22;31365;48.858;8.530;2022-07-12T14:33:00;40.40;49.30
46336;DHT22;31365;48.858;8.530;2022-07-12T14:35:28;40.50;50.20
46336;DHT22;31365;48.858;8.530;2022-07-12T14:37:57;40.20;49.20
46336;DHT22;31365;48.858;8.530;2022-07-12T14:40:25;40.20;48.70
46336;DHT22;31365;48.858;8.530;2022-07-12T14:42:54;39.80;49.50
46336;DHT22;31365;48.858;8.530;2022-07-12T14:45:25;39.90;49.80
46336;DHT22;31365;48.858;8.530;2022-07-12T14:47:53;40.20;49.40
46336;DHT22;31365;48.858;8.530;2022-07-12T14:50:22;40.10;49.60
46336;DHT22;31365;48.858;8.530;2022-07-12T14:52:50;39.80;49.50
46336;DHT22;31365;48.858;8.530;2022-07-12T14:55:19;39.50;49.80
46336;DHT22;31365;48.858;8.530;2022-07-12T14:57:47;39.50;49.50
46336;DHT22;31365;48.858;8.530;2022-07-12T15:00:17;39.40;49.80
46336;DHT22;31365;48.858;8.530;2022-07-12T15:02:46;38.90;50.00
46336;DHT22;31365;48.858;8.530;2022-07-12T15:05:21;38.80;49.70
46336;DHT22;31365;48.858;8.530;2022-07-12T15:07:49;38.80;49.60
46336;DHT22;31365;48.858;8.530;2022-07-12T15:10:17;38.60;49.40
46336;DHT22;31365;48.858;8.530;2022-07-12T15:12:45;38.70;49.60
46336;DHT22;31365;48.858;8.530;2022-07-12T15:15:14;38.60;50.30
46336;DHT22;31365;48.858;8.530;2022-07-12T15:17:51;38.70;50.90
46336;DHT22;31365;48.858;8.530;2022-07-12T15:20:21;38.50;50.10
46336;DHT22;31365;48.858;8.530;2022-07-12T15:22:49;37.90;51.00
46336;DHT22;31365;48.858;8.530;2022-07-12T15:25:18;36.70;50.90
46336;DHT22;31365;48.858;8.530;2022-07-12T15:27:47;35.70;52.50
46336;DHT22;31365;48.858;8.530;2022-07-12T15:30:16;34.80;53.30
46336;DHT22;31365;48.858;8.530;2022-07-12T15:32:44;34.10;54.00
46336;DHT22;31365;48.858;8.530;2022-07-12T15:35:21;33.50;55.00
46336;DHT22;31365;48.858;8.530;2022-07-12T15:37:49;33.00;55.40
46336;DHT22;31365;48.858;8.530;2022-07-12T15:40:18;32.70;56.00
46336;DHT22;31365;48.858;8.530;2022-07-12T15:42:46;32.50;56.80
46336;DHT22;31365;48.858;8.530;2022-07-12T15:45:14;32.10;57.80
46336;DHT22;31365;48.858;8.530;2022-07-12T15:47:43;31.90;58.20
46336;DHT22;31365;48.858;8.530;2022-07-12T15:50:11;31.60;57.80